sensor_id;sensor_type;location;lat;lon;timestamp;P1;durP1;ratioP1;P2;durP2;ratioP2
3704;SDS011;1868;48.918;9.438;2024-02-28T00:01:51;24.13;;;17.47;;
3704;SDS011;1868;48.918;9.438;2024-02-28T00:04:20;21.57;;;16.07;;
3704;SDS011;1868;48.918;9.438;2024-02-28T00:06:49;25.87;;;18.00;;
3704;SDS011;1868;48.918;9.438;2024-02-28T00:09:18;20.50;;;15.13;;
3704;SDS011;1868;48.918;9.438;2024-02-28T00:11:46;24.93;;;18.07;;
3704;SDS011;1868;48.918;9.438;2024-02-28T00:14:16;27.00;;;17.90;;
3704;SDS011;1868;48.918;9.438;2024-02-28T00:16:45;23.40;;;16.10;;
3704;SDS011;1868;48.918;9.438;2024-02-28T00:19:19;24.67;;;16.70;;
3704;SDS011;1868;48.918;9.438;2024-02-28T00:21:49;28.37;;;18.57;;
3704;SDS011;1868;48.918;9.438;2024-02-28T00:24:18;30.70;;;17.53;;
3704;SDS011;1868;48.918;9.438;2024-02-28T00:26:48;24.63;;;16.83;;
3704;SDS011;1868;48.918;9.438;2024-02-28T00:29:17;28.23;;;18.50;;
3704;SDS011;1868;48.918;9.438;2024-02-28T00:31:45;28.27;;;18.83;;
3704;SDS011;1868;48.918;9.438;2024-02-28T00:34:14;25.27;;;17.10;;
3704;SDS011;1868;48.918;9.438;2024-02-28T00:36:45;30.50;;;19.23;;
3704;SDS011;1868;48.918;9.438;2024-02-28T00:39:21;28.10;;;18.87;;
3704;SDS011;1868;48.918;9.438;2024-02-28T00:41:51;25.90;;;17.67;;
3704;SDS011;1868;48.918;9.438;2024-02-28T00:44:21;29.00;;;18.80;;
3704;SDS011;1868;48.918;9.438;2024-02-28T00:46:50;27.10;;;17.90;;
3704;SDS011;1868;48.918;9.438;2024-02-28T00:49:19;28.60;;;18.17;;
3704;SDS011;1868;48.918;9.438;2024-02-28T00:51:49;22.93;;;15.83;;
3704;SDS011;1868;48.918;9.438;2024-02-28T00:54:18;25.90;;;17.73;;
3704;SDS011;1868;48.918;9.438;2024-02-28T00:56:48;24.63;;;17.20;;
3704;SDS011;1868;48.918;9.438;2024-02-28T00:59:17;24.60;;;18.20;;
3704;SDS011;1868;48.918;9.438;2024-02-28T01:01:51;29.23;;;17.87;;
3704;SDS011;1868;48.918;9.438;2024-02-28T01:04:20;26.93;;;17.73;;
3704;SDS011;1868;48.918;9.438;2024-02-28T01:06:50;28.57;;;18.30;;
3704;SDS011;1868;48.918;9.438;2024-02-28T01:09:19;28.13;;;18.53;;
3704;SDS011;1868;48.918;9.438;2024-02-28T01:11:49;28.30;;;19.13;;
3704;SDS011;1868;48.918;9.438;2024-02-28T01:14:18;25.50;;;18.80;;
3704;SDS011;1868;48.918;9.438;2024-02-28T01:16:48;27.73;;;19.20;;
3704;SDS011;1868;48.918;9.438;2024-02-28T01:19:18;29.00;;;18.80;;
3704;SDS011;1868;48.918;9.438;2024-02-28T01:21:47;26.30;;;17.97;;
3704;SDS011;1868;48.918;9.438;2024-02-28T01:24:17;26.13;;;18.73;;
3704;SDS011;1868;48.918;9.438;2024-02-28T01:26:46;26.33;;;16.80;;
3704;SDS011;1868;48.918;9.438;2024-02-28T01:29:17;24.57;;;17.33;;
3704;SDS011;1868;48.918;9.438;2024-02-28T01:31:46;28.30;;;18.50;;
3704;SDS011;1868;48.918;9.438;2024-02-28T01:34:14;27.93;;;17.80;;
3704;SDS011;1868;48.918;9.438;2024-02-28T01:36:43;22.30;;;15.67;;
3704;SDS011;1868;48.918;9.438;2024-02-28T01:39:12;24.20;;;17.43;;
3704;SDS011;1868;48.918;9.438;2024-02-28T01:41:49;20.97;;;16.03;;
3704;SDS011;1868;48.918;9.438;2024-02-28T01:44:20;24.37;;;17.83;;
3704;SDS011;1868;48.918;9.438;2024-02-28T01:46:51;26.03;;;19.10;;
3704;SDS011;1868;48.918;9.438;2024-02-28T01:49:21;21.53;;;16.07;;
3704;SDS011;1868;48.918;9.438;2024-02-28T01:51:51;27.53;;;17.10;;
3704;SDS011;1868;48.918;9.438;2024-02-28T01:54:23;25.10;;;17.07;;
3704;SDS011;1868;48.918;9.438;2024-02-28T01:56:54;23.83;;;17.40;;
3704;SDS011;1868;48.918;9.438;2024-02-28T01:59:24;24.47;;;17.80;;
3704;SDS011;1868;48.918;9.438;2024-02-28T02:01:55;23.67;;;16.97;;
3704;SDS011;1868;48.918;9.438;2024-02-28T02:04:24;27.93;;;18.60;;
3704;SDS011;1868;48.918;9.438;2024-02-28T02:06:53;25.53;;;17.97;;
3704;SDS011;1868;48.918;9.438;2024-02-28T02:09:25;20.97;;;14.97;;
3704;SDS011;1868;48.918;9.438;2024-02-28T02:11:56;26.27;;;17.30;;
3704;SDS011;1868;48.918;9.438;2024-02-28T02:14:24;24.23;;;17.07;;
3704;SDS011;1868;48.918;9.438;2024-02-28T02:16:53;23.80;;;16.57;;
3704;SDS011;1868;48.918;9.438;2024-02-28T02:19:22;23.83;;;17.07;;
3704;SDS011;1868;48.918;9.438;2024-02-28T02:21:52;26.40;;;17.77;;
3704;SDS011;1868;48.918;9.438;2024-02-28T02:24:23;26.77;;;18.90;;
3704;SDS011;1868;48.918;9.438;2024-02-28T02:26:54;29.77;;;18.87;;
3704;SDS011;1868;48.918;9.438;2024-02-28T02:29:25;23.77;;;16.93;;
3704;SDS011;1868;48.918;9.438;2024-02-28T02:31:55;28.20;;;17.27;;
3704;SDS011;1868;48.918;9.438;2024-02-28T02:34:24;26.00;;;17.47;;
3704;SDS011;1868;48.918;9.438;2024-02-28T02:36:53;27.57;;;18.40;;
3704;SDS011;1868;48.918;9.438;2024-02-28T02:39:21;29.23;;;17.90;;
3704;SDS011;1868;48.918;9.438;2024-02-28T02:41:51;24.63;;;17.40;;
3704;SDS011;1868;48.918;9.438;2024-02-28T02:44:20;27.70;;;18.23;;
3704;SDS011;1868;48.918;9.438;2024-02-28T02:46:50;25.83;;;17.43;;
3704;SDS011;1868;48.918;9.438;2024-02-28T02:49:18;27.20;;;17.90;;
3704;SDS011;1868;48.918;9.438;2024-02-28T02:51:47;25.87;;;18.77;;
3704;SDS011;1868;48.918;9.438;2024-02-28T02:54:17;25.00;;;18.53;;
3704;SDS011;1868;48.918;9.438;2024-02-28T02:56:47;25.53;;;17.67;;
3704;SDS011;1868;48.918;9.438;2024-02-28T02:59:17;28.13;;;19.47;;
3704;SDS011;1868;48.918;9.438;2024-02-28T03:01:49;27.37;;;18.47;;
3704;SDS011;1868;48.918;9.438;2024-02-28T03:04:19;25.80;;;17.90;;
3704;SDS011;1868;48.918;9.438;2024-02-28T03:06:48;29.83;;;19.30;;
3704;SDS011;1868;48.918;9.438;2024-02-28T03:09:17;28.53;;;18.70;;
3704;SDS011;1868;48.918;9.438;2024-02-28T03:11:47;28.30;;;19.33;;
3704;SDS011;1868;48.918;9.438;2024-02-28T03:14:16;28.60;;;19.30;;
3704;SDS011;1868;48.918;9.438;2024-02-28T03:16:45;30.20;;;20.57;;
3704;SDS011;1868;48.918;9.438;2024-02-28T03:19:16;28.17;;;19.70;;
3704;SDS011;1868;48.918;9.438;2024-02-28T03:21:45;33.13;;;20.17;;
3704;SDS011;1868;48.918;9.438;2024-02-28T03:24:13;34.43;;;21.30;;
3704;SDS011;1868;48.918;9.438;2024-02-28T03:26:44;30.10;;;20.47;;
3704;SDS011;1868;48.918;9.438;2024-02-28T03:29:14;30.83;;;20.97;;
3704;SDS011;1868;48.918;9.438;2024-02-28T03:31:43;31.47;;;20.50;;
3704;SDS011;1868;48.918;9.438;2024-02-28T03:34:12;34.70;;;21.90;;
3704;SDS011;1868;48.918;9.438;2024-02-28T03:36:40;27.10;;;18.83;;
3704;SDS011;1868;48.918;9.438;2024-02-28T03:39:09;29.03;;;19.33;;
3704;SDS011;1868;48.918;9.438;2024-02-28T03:41:38;29.30;;;19.03;;
3704;SDS011;1868;48.918;9.438;2024-02-28T03:44:07;32.60;;;20.53;;
3704;SDS011;1868;48.918;9.438;2024-02-28T03:46:37;30.33;;;20.60;;
3704;SDS011;1868;48.918;9.438;2024-02-28T03:49:06;31.00;;;21.80;;
3704;SDS011;1868;48.918;9.438;2024-02-28T03:51:38;29.73;;;20.00;;
3704;SDS011;1868;48.918;9.438;2024-02-28T03:54:08;29.80;;;20.57;;
3704;SDS011;1868;48.918;9.438;2024-02-28T03:56:38;31.03;;;20.47;;
3704;SDS011;1868;48.918;9.438;2024-02-28T03:59:07;34.80;;;22.30;;
3704;SDS011;1868;48.918;9.438;2024-02-28T04:01:38;30.43;;;19.20;;
3704;SDS011;1868;48.918;9.438;2024-02-28T04:04:06;33.10;;;20.77;;
3704;SDS011;1868;48.918;9.438;2024-02-28T04:06:34;30.00;;;20.73;;
3704;SDS011;1868;48.918;9.438;2024-02-28T04:09:03;27.97;;;18.47;;
3704;SDS011;1868;48.918;9.438;2024-02-28T04:11:32;31.23;;;20.73;;
3704;SDS011;1868;48.918;9.438;2024-02-28T04:14:02;30.87;;;21.20;;
3704;SDS011;1868;48.918;9.438;2024-02-28T04:16:31;31.47;;;20.90;;
3704;SDS011;1868;48.918;9.438;2024-02-28T04:19:02;27.37;;;19.40;;
3704;SDS011;1868;48.918;9.438;2024-02-28T04:21:30;28.13;;;19.63;;
3704;SDS011;1868;48.918;9.438;2024-02-28T04:23:59;30.57;;;18.87;;
3704;SDS011;1868;48.918;9.438;2024-02-28T04:26:28;29.53;;;19.83;;
3704;SDS011;1868;48.918;9.438;2024-02-28T04:28:57;28.23;;;18.73;;
3704;SDS011;1868;48.918;9.438;2024-02-28T04:31:28;29.10;;;19.50;;
3704;SDS011;1868;48.918;9.438;2024-02-28T04:33:57;29.50;;;20.07;;
3704;SDS011;1868;48.918;9.438;2024-02-28T04:36:27;31.60;;;21.43;;
3704;SDS011;1868;48.918;9.438;2024-02-28T04:38:56;31.53;;;20.77;;
3704;SDS011;1868;48.918;9.438;2024-02-28T04:41:25;32.70;;;19.47;;
3704;SDS011;1868;48.918;9.438;2024-02-28T04:43:54;27.43;;;18.53;;
3704;SDS011;1868;48.918;9.438;2024-02-28T04:46:23;27.10;;;19.70;;
3704;SDS011;1868;48.918;9.438;2024-02-28T04:48:52;28.83;;;19.13;;
3704;SDS011;1868;48.918;9.438;2024-02-28T04:51:21;34.40;;;21.27;;
3704;SDS011;1868;48.918;9.438;2024-02-28T04:53:53;31.77;;;21.53;;
3704;SDS011;1868;48.918;9.438;2024-02-28T04:56:22;34.70;;;22.37;;
3704;SDS011;1868;48.918;9.438;2024-02-28T04:58:52;30.10;;;19.43;;
3704;SDS011;1868;48.918;9.438;2024-02-28T05:01:20;31.70;;;19.63;;
3704;SDS011;1868;48.918;9.438;2024-02-28T05:03:49;30.93;;;19.93;;
3704;SDS011;1868;48.918;9.438;2024-02-28T05:06:18;26.10;;;17.83;;
3704;SDS011;1868;48.918;9.438;2024-02-28T05:08:47;29.00;;;19.47;;
3704;SDS011;1868;48.918;9.438;2024-02-28T05:11:17;28.47;;;18.67;;
3704;SDS011;1868;48.918;9.438;2024-02-28T05:13:46;31.10;;;20.97;;
3704;SDS011;1868;48.918;9.438;2024-02-28T05:16:16;30.20;;;18.87;;
3704;SDS011;1868;48.918;9.438;2024-02-28T05:18:45;30.07;;;18.17;;
3704;SDS011;1868;48.918;9.438;2024-02-28T05:21:15;28.97;;;19.60;;
3704;SDS011;1868;48.918;9.438;2024-02-28T05:23:44;26.03;;;18.03;;
3704;SDS011;1868;48.918;9.438;2024-02-28T05:26:12;29.80;;;19.33;;
3704;SDS011;1868;48.918;9.438;2024-02-28T05:28:43;28.87;;;18.40;;
3704;SDS011;1868;48.918;9.438;2024-02-28T05:31:21;23.13;;;17.07;;
3704;SDS011;1868;48.918;9.438;2024-02-28T05:33:53;24.67;;;15.80;;
3704;SDS011;1868;48.918;9.438;2024-02-28T05:36:25;26.80;;;17.53;;
3704;SDS011;1868;48.918;9.438;2024-02-28T05:38:56;25.40;;;16.97;;
3704;SDS011;1868;48.918;9.438;2024-02-28T05:41:26;30.47;;;18.87;;
3704;SDS011;1868;48.918;9.438;2024-02-28T05:43:56;24.30;;;17.07;;
3704;SDS011;1868;48.918;9.438;2024-02-28T05:46:25;26.87;;;18.53;;
3704;SDS011;1868;48.918;9.438;2024-02-28T05:48:54;27.33;;;17.37;;
3704;SDS011;1868;48.918;9.438;2024-02-28T05:51:23;25.93;;;16.80;;
3704;SDS011;1868;48.918;9.438;2024-02-28T05:53:52;27.77;;;19.20;;
3704;SDS011;1868;48.918;9.438;2024-02-28T05:56:21;29.50;;;19.50;;
3704;SDS011;1868;48.918;9.438;2024-02-28T05:58:50;25.07;;;17.30;;
3704;SDS011;1868;48.918;9.438;2024-02-28T06:01:21;26.47;;;16.10;;
3704;SDS011;1868;48.918;9.438;2024-02-28T06:03:50;22.50;;;15.70;;
3704;SDS011;1868;48.918;9.438;2024-02-28T06:06:19;26.23;;;16.50;;
3704;SDS011;1868;48.918;9.438;2024-02-28T06:08:50;23.93;;;16.20;;
3704;SDS011;1868;48.918;9.438;2024-02-28T06:11:19;22.20;;;16.83;;
3704;SDS011;1868;48.918;9.438;2024-02-28T06:13:47;22.60;;;16.20;;
3704;SDS011;1868;48.918;9.438;2024-02-28T06:16:19;22.20;;;15.27;;
3704;SDS011;1868;48.918;9.438;2024-02-28T06:18:49;24.53;;;15.97;;
3704;SDS011;1868;48.918;9.438;2024-02-28T06:21:18;21.00;;;15.13;;
3704;SDS011;1868;48.918;9.438;2024-02-28T06:23:51;20.77;;;14.13;;
3704;SDS011;1868;48.918;9.438;2024-02-28T06:26:20;21.63;;;14.77;;
3704;SDS011;1868;48.918;9.438;2024-02-28T06:28:50;21.13;;;14.40;;
3704;SDS011;1868;48.918;9.438;2024-02-28T06:31:21;18.20;;;14.30;;
3704;SDS011;1868;48.918;9.438;2024-02-28T06:33:52;20.03;;;15.00;;
3704;SDS011;1868;48.918;9.438;2024-02-28T06:36:22;22.30;;;14.50;;
3704;SDS011;1868;48.918;9.438;2024-02-28T06:38:52;21.57;;;15.67;;
3704;SDS011;1868;48.918;9.438;2024-02-28T06:41:21;20.60;;;14.87;;
3704;SDS011;1868;48.918;9.438;2024-02-28T06:43:50;23.33;;;15.83;;
3704;SDS011;1868;48.918;9.438;2024-02-28T06:46:20;22.00;;;16.20;;
3704;SDS011;1868;48.918;9.438;2024-02-28T06:48:49;24.00;;;16.53;;
3704;SDS011;1868;48.918;9.438;2024-02-28T06:51:20;20.43;;;14.23;;
3704;SDS011;1868;48.918;9.438;2024-02-28T06:53:49;23.43;;;15.43;;
3704;SDS011;1868;48.918;9.438;2024-02-28T06:56:18;22.13;;;15.63;;
3704;SDS011;1868;48.918;9.438;2024-02-28T06:58:49;22.30;;;15.07;;
3704;SDS011;1868;48.918;9.438;2024-02-28T07:01:17;23.60;;;16.17;;
3704;SDS011;1868;48.918;9.438;2024-02-28T07:03:49;22.20;;;15.37;;
3704;SDS011;1868;48.918;9.438;2024-02-28T07:06:18;24.47;;;16.50;;
3704;SDS011;1868;48.918;9.438;2024-02-28T07:08:47;24.13;;;16.13;;
3704;SDS011;1868;48.918;9.438;2024-02-28T07:11:16;27.73;;;18.10;;
3704;SDS011;1868;48.918;9.438;2024-02-28T07:13:45;24.40;;;17.17;;
3704;SDS011;1868;48.918;9.438;2024-02-28T07:16:15;25.37;;;17.40;;
3704;SDS011;1868;48.918;9.438;2024-02-28T07:18:43;26.73;;;16.83;;
3704;SDS011;1868;48.918;9.438;2024-02-28T07:21:14;26.00;;;17.73;;
3704;SDS011;1868;48.918;9.438;2024-02-28T07:23:43;23.60;;;16.43;;
3704;SDS011;1868;48.918;9.438;2024-02-28T07:26:15;25.80;;;17.60;;
3704;SDS011;1868;48.918;9.438;2024-02-28T07:28:52;22.77;;;16.03;;
3704;SDS011;1868;48.918;9.438;2024-02-28T07:31:22;25.60;;;17.37;;
3704;SDS011;1868;48.918;9.438;2024-02-28T07:33:54;23.87;;;15.83;;
3704;SDS011;1868;48.918;9.438;2024-02-28T07:36:25;27.93;;;18.63;;
3704;SDS011;1868;48.918;9.438;2024-02-28T07:38:54;28.70;;;17.30;;
3704;SDS011;1868;48.918;9.438;2024-02-28T07:41:24;26.23;;;18.80;;
3704;SDS011;1868;48.918;9.438;2024-02-28T07:43:53;26.97;;;16.40;;
3704;SDS011;1868;48.918;9.438;2024-02-28T07:46:23;24.90;;;15.50;;
3704;SDS011;1868;48.918;9.438;2024-02-28T07:48:51;23.90;;;15.90;;
3704;SDS011;1868;48.918;9.438;2024-02-28T07:51:21;24.37;;;16.23;;
3704;SDS011;1868;48.918;9.438;2024-02-28T07:53:52;30.63;;;18.87;;
3704;SDS011;1868;48.918;9.438;2024-02-28T07:56:21;27.77;;;18.10;;
3704;SDS011;1868;48.918;9.438;2024-02-28T07:58:50;23.80;;;16.10;;
3704;SDS011;1868;48.918;9.438;2024-02-28T08:01:20;26.83;;;17.50;;
3704;SDS011;1868;48.918;9.438;2024-02-28T08:03:50;26.97;;;17.30;;
3704;SDS011;1868;48.918;9.438;2024-02-28T08:06:20;22.83;;;15.70;;
3704;SDS011;1868;48.918;9.438;2024-02-28T08:08:52;25.43;;;16.23;;
3704;SDS011;1868;48.918;9.438;2024-02-28T08:11:21;26.33;;;17.30;;
3704;SDS011;1868;48.918;9.438;2024-02-28T08:13:51;28.43;;;16.67;;
3704;SDS011;1868;48.918;9.438;2024-02-28T08:16:20;25.70;;;16.77;;
3704;SDS011;1868;48.918;9.438;2024-02-28T08:18:49;22.57;;;16.80;;
3704;SDS011;1868;48.918;9.438;2024-02-28T08:21:18;25.47;;;17.67;;
3704;SDS011;1868;48.918;9.438;2024-02-28T08:23:47;26.83;;;17.10;;
3704;SDS011;1868;48.918;9.438;2024-02-28T08:26:18;27.03;;;17.73;;
3704;SDS011;1868;48.918;9.438;2024-02-28T08:28:47;30.70;;;19.03;;
3704;SDS011;1868;48.918;9.438;2024-02-28T08:31:16;28.70;;;18.30;;
3704;SDS011;1868;48.918;9.438;2024-02-28T08:33:45;30.77;;;19.10;;
3704;SDS011;1868;48.918;9.438;2024-02-28T08:36:15;26.30;;;17.83;;
3704;SDS011;1868;48.918;9.438;2024-02-28T08:38:44;28.30;;;18.33;;
3704;SDS011;1868;48.918;9.438;2024-02-28T08:41:13;25.40;;;17.10;;
3704;SDS011;1868;48.918;9.438;2024-02-28T08:43:45;25.23;;;18.20;;
3704;SDS011;1868;48.918;9.438;2024-02-28T08:46:14;30.20;;;18.33;;
3704;SDS011;1868;48.918;9.438;2024-02-28T08:48:43;29.93;;;18.07;;
3704;SDS011;1868;48.918;9.438;2024-02-28T08:51:12;26.03;;;17.17;;
3704;SDS011;1868;48.918;9.438;2024-02-28T08:53:43;31.90;;;19.20;;
3704;SDS011;1868;48.918;9.438;2024-02-28T08:56:12;27.97;;;18.00;;
3704;SDS011;1868;48.918;9.438;2024-02-28T08:58:41;31.37;;;17.00;;
3704;SDS011;1868;48.918;9.438;2024-02-28T09:01:14;34.00;;;20.47;;
3704;SDS011;1868;48.918;9.438;2024-02-28T09:03:43;26.87;;;17.20;;
3704;SDS011;1868;48.918;9.438;2024-02-28T09:06:14;32.10;;;17.93;;
3704;SDS011;1868;48.918;9.438;2024-02-28T09:08:43;30.93;;;18.77;;
3704;SDS011;1868;48.918;9.438;2024-02-28T09:11:11;35.87;;;21.30;;
3704;SDS011;1868;48.918;9.438;2024-02-28T09:13:40;35.00;;;20.47;;
3704;SDS011;1868;48.918;9.438;2024-02-28T09:16:09;34.73;;;19.43;;
3704;SDS011;1868;48.918;9.438;2024-02-28T09:18:40;34.80;;;20.10;;
3704;SDS011;1868;48.918;9.438;2024-02-28T09:21:09;31.80;;;19.80;;
3704;SDS011;1868;48.918;9.438;2024-02-28T09:23:38;35.03;;;20.40;;
3704;SDS011;1868;48.918;9.438;2024-02-28T09:26:07;30.40;;;18.23;;
3704;SDS011;1868;48.918;9.438;2024-02-28T09:28:37;32.17;;;19.83;;
3704;SDS011;1868;48.918;9.438;2024-02-28T09:31:08;26.77;;;16.67;;
3704;SDS011;1868;48.918;9.438;2024-02-28T09:33:37;31.07;;;17.50;;
3704;SDS011;1868;48.918;9.438;2024-02-28T09:36:08;25.57;;;17.27;;
3704;SDS011;1868;48.918;9.438;2024-02-28T09:38:36;30.13;;;18.67;;
3704;SDS011;1868;48.918;9.438;2024-02-28T09:41:05;36.60;;;19.10;;
3704;SDS011;1868;48.918;9.438;2024-02-28T09:43:36;31.80;;;18.90;;
3704;SDS011;1868;48.918;9.438;2024-02-28T09:46:10;31.37;;;19.10;;
3704;SDS011;1868;48.918;9.438;2024-02-28T09:48:41;30.20;;;18.10;;
3704;SDS011;1868;48.918;9.438;2024-02-28T09:51:14;32.30;;;19.23;;
3704;SDS011;1868;48.918;9.438;2024-02-28T09:53:47;34.53;;;18.43;;
3704;SDS011;1868;48.918;9.438;2024-02-28T09:56:16;30.60;;;18.97;;
3704;SDS011;1868;48.918;9.438;2024-02-28T09:58:45;30.77;;;18.20;;
3704;SDS011;1868;48.918;9.438;2024-02-28T10:01:16;32.30;;;18.33;;
3704;SDS011;1868;48.918;9.438;2024-02-28T10:03:50;35.97;;;19.10;;
3704;SDS011;1868;48.918;9.438;2024-02-28T10:06:22;28.00;;;18.13;;
3704;SDS011;1868;48.918;9.438;2024-02-28T10:08:52;30.60;;;17.97;;
3704;SDS011;1868;48.918;9.438;2024-02-28T10:11:21;30.60;;;18.03;;
3704;SDS011;1868;48.918;9.438;2024-02-28T10:13:52;29.83;;;16.00;;
3704;SDS011;1868;48.918;9.438;2024-02-28T10:16:21;27.77;;;16.87;;
3704;SDS011;1868;48.918;9.438;2024-02-28T10:18:52;28.30;;;16.83;;
3704;SDS011;1868;48.918;9.438;2024-02-28T10:21:23;29.60;;;15.27;;
3704;SDS011;1868;48.918;9.438;2024-02-28T10:23:53;26.83;;;16.47;;
3704;SDS011;1868;48.918;9.438;2024-02-28T10:26:21;23.50;;;14.93;;
3704;SDS011;1868;48.918;9.438;2024-02-28T10:28:50;31.53;;;17.27;;
3704;SDS011;1868;48.918;9.438;2024-02-28T10:31:20;22.27;;;14.43;;
3704;SDS011;1868;48.918;9.438;2024-02-28T10:33:49;21.63;;;13.37;;
3704;SDS011;1868;48.918;9.438;2024-02-28T10:36:18;23.33;;;15.23;;
3704;SDS011;1868;48.918;9.438;2024-02-28T10:38:49;22.83;;;14.83;;
3704;SDS011;1868;48.918;9.438;2024-02-28T10:41:19;20.43;;;12.80;;
3704;SDS011;1868;48.918;9.438;2024-02-28T10:43:48;22.37;;;14.20;;
3704;SDS011;1868;48.918;9.438;2024-02-28T10:46:19;20.80;;;14.00;;
3704;SDS011;1868;48.918;9.438;2024-02-28T10:49:02;22.67;;;14.43;;
3704;SDS011;1868;48.918;9.438;2024-02-28T10:51:34;23.43;;;14.40;;
3704;SDS011;1868;48.918;9.438;2024-02-28T10:54:11;22.00;;;14.00;;
3704;SDS011;1868;48.918;9.438;2024-02-28T10:56:41;19.47;;;12.97;;
3704;SDS011;1868;48.918;9.438;2024-02-28T10:59:11;18.67;;;12.60;;
3704;SDS011;1868;48.918;9.438;2024-02-28T11:01:42;25.83;;;14.40;;
3704;SDS011;1868;48.918;9.438;2024-02-28T11:04:13;19.50;;;13.20;;
3704;SDS011;1868;48.918;9.438;2024-02-28T11:06:48;23.77;;;13.87;;
3704;SDS011;1868;48.918;9.438;2024-02-28T11:09:21;18.00;;;13.30;;
3704;SDS011;1868;48.918;9.438;2024-02-28T11:11:53;25.90;;;15.27;;
3704;SDS011;1868;48.918;9.438;2024-02-28T11:14:23;18.57;;;12.73;;
3704;SDS011;1868;48.918;9.438;2024-02-28T11:17:00;19.07;;;13.13;;
3704;SDS011;1868;48.918;9.438;2024-02-28T11:19:31;24.63;;;14.63;;
3704;SDS011;1868;48.918;9.438;2024-02-28T11:22:02;20.90;;;12.77;;
3704;SDS011;1868;48.918;9.438;2024-02-28T11:24:37;22.70;;;14.17;;
3704;SDS011;1868;48.918;9.438;2024-02-28T11:27:07;19.33;;;13.23;;
3704;SDS011;1868;48.918;9.438;2024-02-28T11:29:42;21.40;;;14.20;;
3704;SDS011;1868;48.918;9.438;2024-02-28T11:32:13;19.10;;;13.20;;
3704;SDS011;1868;48.918;9.438;2024-02-28T11:34:48;23.27;;;13.00;;
3704;SDS011;1868;48.918;9.438;2024-02-28T11:37:18;15.63;;;11.27;;
3704;SDS011;1868;48.918;9.438;2024-02-28T11:39:50;20.83;;;14.20;;
3704;SDS011;1868;48.918;9.438;2024-02-28T11:42:19;19.57;;;13.13;;
3704;SDS011;1868;48.918;9.438;2024-02-28T11:44:52;23.50;;;14.83;;
3704;SDS011;1868;48.918;9.438;2024-02-28T11:47:27;18.03;;;12.53;;
3704;SDS011;1868;48.918;9.438;2024-02-28T11:49:57;20.33;;;11.77;;
3704;SDS011;1868;48.918;9.438;2024-02-28T11:52:32;15.00;;;11.60;;
3704;SDS011;1868;48.918;9.438;2024-02-28T11:55:03;19.90;;;13.27;;
3704;SDS011;1868;48.918;9.438;2024-02-28T11:57:33;19.57;;;13.27;;
3704;SDS011;1868;48.918;9.438;2024-02-28T12:00:03;15.73;;;12.10;;
3704;SDS011;1868;48.918;9.438;2024-02-28T12:02:35;16.70;;;12.13;;
3704;SDS011;1868;48.918;9.438;2024-02-28T12:05:05;21.30;;;14.30;;
3704;SDS011;1868;48.918;9.438;2024-02-28T12:07:36;17.00;;;12.20;;
3704;SDS011;1868;48.918;9.438;2024-02-28T12:10:08;17.00;;;12.07;;
3704;SDS011;1868;48.918;9.438;2024-02-28T12:12:39;18.83;;;12.07;;
3704;SDS011;1868;48.918;9.438;2024-02-28T12:15:09;16.40;;;11.80;;
3704;SDS011;1868;48.918;9.438;2024-02-28T12:17:38;22.20;;;12.03;;
3704;SDS011;1868;48.918;9.438;2024-02-28T12:20:06;18.67;;;11.90;;
3704;SDS011;1868;48.918;9.438;2024-02-28T12:22:36;15.80;;;10.87;;
3704;SDS011;1868;48.918;9.438;2024-02-28T12:25:08;15.70;;;10.63;;
3704;SDS011;1868;48.918;9.438;2024-02-28T12:27:38;19.67;;;12.77;;
3704;SDS011;1868;48.918;9.438;2024-02-28T12:30:07;16.83;;;11.87;;
3704;SDS011;1868;48.918;9.438;2024-02-28T12:32:38;16.53;;;12.00;;
3704;SDS011;1868;48.918;9.438;2024-02-28T12:35:07;20.00;;;13.57;;
3704;SDS011;1868;48.918;9.438;2024-02-28T12:37:37;19.37;;;13.20;;
3704;SDS011;1868;48.918;9.438;2024-02-28T12:40:09;18.40;;;12.93;;
3704;SDS011;1868;48.918;9.438;2024-02-28T12:42:42;19.30;;;13.00;;
3704;SDS011;1868;48.918;9.438;2024-02-28T12:45:11;16.87;;;11.83;;
3704;SDS011;1868;48.918;9.438;2024-02-28T12:47:40;19.23;;;12.40;;
3704;SDS011;1868;48.918;9.438;2024-02-28T12:50:09;19.40;;;12.90;;
3704;SDS011;1868;48.918;9.438;2024-02-28T12:52:38;18.60;;;12.47;;
3704;SDS011;1868;48.918;9.438;2024-02-28T12:55:10;17.10;;;12.00;;
3704;SDS011;1868;48.918;9.438;2024-02-28T12:57:41;16.83;;;12.00;;
3704;SDS011;1868;48.918;9.438;2024-02-28T13:00:12;15.57;;;11.13;;
3704;SDS011;1868;48.918;9.438;2024-02-28T13:02:43;15.70;;;12.07;;
3704;SDS011;1868;48.918;9.438;2024-02-28T13:05:12;16.30;;;11.30;;
3704;SDS011;1868;48.918;9.438;2024-02-28T13:07:43;16.03;;;11.00;;
3704;SDS011;1868;48.918;9.438;2024-02-28T13:10:16;14.57;;;11.10;;
3704;SDS011;1868;48.918;9.438;2024-02-28T13:12:45;14.67;;;10.40;;
3704;SDS011;1868;48.918;9.438;2024-02-28T13:15:14;12.20;;;9.43;;
3704;SDS011;1868;48.918;9.438;2024-02-28T13:17:45;13.40;;;10.27;;
3704;SDS011;1868;48.918;9.438;2024-02-28T13:20:16;11.67;;;9.90;;
3704;SDS011;1868;48.918;9.438;2024-02-28T13:22:45;12.30;;;9.60;;
3704;SDS011;1868;48.918;9.438;2024-02-28T13:25:18;16.77;;;11.57;;
3704;SDS011;1868;48.918;9.438;2024-02-28T13:27:48;13.77;;;10.30;;
3704;SDS011;1868;48.918;9.438;2024-02-28T13:30:17;11.20;;;9.10;;
3704;SDS011;1868;48.918;9.438;2024-02-28T13:32:47;15.63;;;11.10;;
3704;SDS011;1868;48.918;9.438;2024-02-28T13:35:16;13.50;;;10.27;;
3704;SDS011;1868;48.918;9.438;2024-02-28T13:37:44;14.90;;;10.57;;
3704;SDS011;1868;48.918;9.438;2024-02-28T13:40:13;14.53;;;10.47;;
3704;SDS011;1868;48.918;9.438;2024-02-28T13:42:45;15.50;;;10.83;;
3704;SDS011;1868;48.918;9.438;2024-02-28T13:45:14;12.43;;;9.80;;
3704;SDS011;1868;48.918;9.438;2024-02-28T13:47:43;16.57;;;10.47;;
3704;SDS011;1868;48.918;9.438;2024-02-28T13:50:12;15.83;;;11.37;;
3704;SDS011;1868;48.918;9.438;2024-02-28T13:52:40;14.20;;;10.10;;
3704;SDS011;1868;48.918;9.438;2024-02-28T13:55:09;12.53;;;9.37;;
3704;SDS011;1868;48.918;9.438;2024-02-28T13:57:39;15.43;;;10.97;;
3704;SDS011;1868;48.918;9.438;2024-02-28T14:00:11;11.53;;;8.93;;
3704;SDS011;1868;48.918;9.438;2024-02-28T14:02:42;13.10;;;9.90;;
3704;SDS011;1868;48.918;9.438;2024-02-28T14:05:12;12.70;;;9.57;;
3704;SDS011;1868;48.918;9.438;2024-02-28T14:07:42;13.40;;;10.37;;
3704;SDS011;1868;48.918;9.438;2024-02-28T14:10:11;12.60;;;9.33;;
3704;SDS011;1868;48.918;9.438;2024-02-28T14:12:39;11.67;;;9.13;;
3704;SDS011;1868;48.918;9.438;2024-02-28T14:15:10;13.50;;;10.17;;
3704;SDS011;1868;48.918;9.438;2024-02-28T14:17:39;11.30;;;9.03;;
3704;SDS011;1868;48.918;9.438;2024-02-28T14:20:09;16.53;;;9.60;;
3704;SDS011;1868;48.918;9.438;2024-02-28T14:22:39;16.13;;;10.80;;
3704;SDS011;1868;48.918;9.438;2024-02-28T14:25:10;12.73;;;9.70;;
3704;SDS011;1868;48.918;9.438;2024-02-28T14:27:44;11.70;;;9.53;;
3704;SDS011;1868;48.918;9.438;2024-02-28T14:30:17;12.67;;;8.80;;
3704;SDS011;1868;48.918;9.438;2024-02-28T14:32:46;14.17;;;10.57;;
3704;SDS011;1868;48.918;9.438;2024-02-28T14:35:15;12.23;;;9.00;;
3704;SDS011;1868;48.918;9.438;2024-02-28T14:37:47;12.97;;;10.60;;
3704;SDS011;1868;48.918;9.438;2024-02-28T14:40:16;9.83;;;8.30;;
3704;SDS011;1868;48.918;9.438;2024-02-28T14:42:45;16.47;;;11.40;;
3704;SDS011;1868;48.918;9.438;2024-02-28T14:45:13;15.07;;;12.00;;
3704;SDS011;1868;48.918;9.438;2024-02-28T14:47:45;14.40;;;10.23;;
3704;SDS011;1868;48.918;9.438;2024-02-28T14:50:17;12.80;;;10.13;;
3704;SDS011;1868;48.918;9.438;2024-02-28T14:52:47;10.53;;;8.87;;
3704;SDS011;1868;48.918;9.438;2024-02-28T14:55:16;11.23;;;9.20;;
3704;SDS011;1868;48.918;9.438;2024-02-28T14:57:45;14.43;;;9.67;;
3704;SDS011;1868;48.918;9.438;2024-02-28T15:00:15;12.73;;;9.40;;
3704;SDS011;1868;48.918;9.438;2024-02-28T15:02:46;11.87;;;9.50;;
3704;SDS011;1868;48.918;9.438;2024-02-28T15:05:16;10.03;;;8.50;;